.
WxDataArchive / Data Records for 2014-07-24
2014-07-23 July 2014 2014-07-25

Data Records for Thursday, 24 July 2014

Time	Temp	Chill	HIndex	Humid	Dewpt	 Wind 	HiWind	WindDir	Rain 	Barom
-----	----	-----	------	-----	-----	------	------	-------	-----	-----
00:00	65.6	65.6	65.6	80	59.3	0	1	90	0.00	30.026 
00:05	65.6	65.6	65.6	81	59.6	0	0	---	0.00	30.026 
00:10	65.6	65.6	65.6	82	59.9	0	0	---	0.00	30.026 
00:15	65.5	65.5	65.5	83	60.2	0	0	---	0.00	30.034 
00:20	65.3	65.3	65.3	84	60.3	0	1	90	0.00	30.034 
00:25	65.2	65.2	65.2	84	60.2	0	0	---	0.00	30.034 
00:30	65.0	65.0	65.0	84	60.0	0	0	---	0.00	30.037 
00:35	64.8	64.8	64.8	85	60.2	0	0	---	0.00	30.037 
00:40	64.5	64.5	64.5	85	59.9	0	0	---	0.00	30.037 
00:45	64.3	64.3	64.3	86	60.0	0	0	---	0.00	30.037 
00:50	64.0	64.0	64.0	86	59.7	0	0	---	0.00	30.037 
00:55	63.9	63.9	63.9	87	59.9	0	0	---	0.00	30.037 
01:00	63.7	63.7	63.7	87	59.8	0	0	---	0.00	30.036 
01:05	63.4	63.4	63.4	87	59.5	0	0	---	0.00	30.036 
01:10	63.2	63.2	63.2	88	59.6	0	0	---	0.00	30.036 
01:15	62.9	62.9	62.9	88	59.3	0	0	---	0.00	30.037 
01:20	62.7	62.7	62.7	88	59.1	0	0	---	0.00	30.037 
01:25	62.4	62.4	62.4	88	58.8	0	0	---	0.00	30.037 
01:30	62.3	62.3	62.3	89	59.0	0	0	---	0.00	30.039 
01:35	62.1	62.1	62.1	89	58.8	0	0	---	0.00	30.039 
01:40	62.1	62.1	62.1	90	59.1	0	0	---	0.00	30.039 
01:45	62.3	62.3	62.3	90	59.3	0	0	---	0.00	30.041 
01:50	62.3	62.3	62.3	90	59.3	0	0	---	0.00	30.041 
01:55	62.4	62.4	62.4	91	59.7	0	0	---	0.00	30.041 
02:00	62.4	62.4	62.4	91	59.7	0	0	---	0.00	30.038 
02:05	62.4	62.4	62.4	91	59.7	0	0	---	0.00	30.038 
02:10	62.6	62.6	62.6	91	59.9	0	0	---	0.00	30.038 
02:15	62.6	62.6	62.6	91	59.9	0	0	---	0.00	30.032 
02:20	62.6	62.6	62.6	91	59.9	0	0	---	0.00	30.032 
02:25	62.7	62.7	62.7	91	60.0	0	0	---	0.00	30.032 
02:30	62.7	62.7	62.7	92	60.3	0	0	---	0.00	30.034 
02:35	62.9	62.9	62.9	92	60.5	0	0	---	0.00	30.034 
02:40	63.1	63.1	63.1	92	60.7	0	0	---	0.00	30.034 
02:45	63.1	63.1	63.1	92	60.7	0	0	---	0.00	30.036 
02:50	63.2	63.2	63.2	91	60.5	0	0	---	0.00	30.036 
02:55	63.2	63.2	63.2	91	60.5	0	0	---	0.00	30.036 
03:00	63.2	63.2	63.2	91	60.5	0	0	---	0.00	30.033 
03:05	63.2	63.2	63.2	91	60.5	0	1	90	0.00	30.033 
03:10	63.4	63.4	63.4	90	60.4	0	0	---	0.00	30.033 
03:15	63.4	63.4	63.4	90	60.4	0	1	90	0.00	30.031 
03:20	63.5	63.5	63.5	89	60.2	0	0	---	0.00	30.031 
03:25	63.5	63.5	63.5	89	60.2	0	0	---	0.00	30.031 
03:30	63.5	63.5	63.5	89	60.2	0	0	---	0.00	30.031 
03:35	63.7	63.7	63.7	88	60.1	0	1	90	0.00	30.031 
03:40	63.7	63.7	63.7	88	60.1	0	0	---	0.00	30.031 
03:45	63.7	63.7	63.7	88	60.1	0	1	90	0.00	30.033 
03:50	63.9	63.9	63.9	88	60.3	0	2	90	0.00	30.033 
03:55	63.7	63.7	63.7	88	60.1	0	2	90	0.00	30.033 
04:00	63.9	63.9	63.9	88	60.3	0	1	90	0.00	30.030 
04:05	63.7	63.7	63.7	87	59.8	0	1	90	0.00	30.030 
04:10	63.9	63.9	63.9	87	59.9	0	0	---	0.00	30.030 
04:15	63.7	63.7	63.7	87	59.8	0	0	---	0.00	30.028 
04:20	63.7	63.7	63.7	87	59.8	0	0	---	0.00	30.028 
04:25	63.5	63.5	63.5	87	59.6	0	0	---	0.00	30.028 
04:30	63.4	63.4	63.4	87	59.5	0	0	---	0.00	30.023 
04:35	63.2	63.2	63.2	87	59.3	0	0	---	0.00	30.023 
04:40	63.1	63.1	63.1	87	59.2	0	1	90	0.00	30.023 
04:45	62.9	62.9	62.9	87	59.0	0	0	---	0.00	30.030 
04:50	62.9	62.9	62.9	87	59.0	0	0	---	0.00	30.030 
04:55	62.9	62.9	62.9	87	59.0	0	1	90	0.00	30.030 
05:00	62.7	62.7	62.7	86	58.4	0	2	90	0.00	30.036 
05:05	62.7	62.7	62.7	85	58.1	0	2	90	0.00	30.036 
05:10	62.7	62.7	62.7	84	57.8	0	1	90	0.00	30.036 
05:15	62.7	62.7	62.7	84	57.8	0	1	90	0.00	30.039 
05:20	62.6	62.6	62.6	83	57.4	0	1	90	0.00	30.039 
05:25	62.6	62.6	62.6	83	57.4	0	2	90	0.00	30.039 
05:30	62.4	62.4	62.4	81	56.5	0	2	90	0.00	30.050 
05:35	62.4	62.4	62.4	80	56.1	1	4	90	0.00	30.050 
05:40	62.3	62.3	62.3	79	55.7	0	1	90	0.00	30.050 
05:45	62.3	62.3	62.3	78	55.3	0	2	90	0.00	30.053 
05:50	62.3	62.3	62.3	77	55.0	0	2	90	0.00	30.053 
05:55	62.3	62.3	62.3	77	55.0	0	2	90	0.00	30.053 
06:00	62.1	62.1	62.1	77	54.8	0	3	90	0.00	30.053 
06:05	62.1	62.1	62.1	76	54.4	0	1	90	0.00	30.053 
06:10	62.1	62.1	62.1	76	54.4	0	3	90	0.00	30.053 
06:15	62.1	62.1	62.1	77	54.8	0	2	90	0.00	30.055 
06:20	62.0	62.0	62.0	77	54.7	0	1	90	0.00	30.055 
06:25	62.0	62.0	62.0	77	54.7	0	1	90	0.00	30.055 
06:30	61.8	61.8	61.8	77	54.5	0	2	90	0.00	30.056 
06:35	61.8	61.8	61.8	77	54.5	0	1	90	0.00	30.056 
06:40	61.6	61.6	61.6	77	54.3	0	2	90	0.00	30.056 
06:45	61.6	61.6	61.6	77	54.3	0	2	90	0.00	30.056 
06:50	61.6	61.6	61.6	76	54.0	0	1	90	0.00	30.056 
06:55	61.5	61.5	61.5	76	53.9	0	1	90	0.00	30.056 
07:00	61.5	61.5	61.5	76	53.9	0	0	---	0.00	30.061 
07:05	61.3	61.3	61.3	76	53.7	0	3	90	0.00	30.061 
07:10	61.3	61.3	61.3	74	52.9	0	3	90	0.00	30.061 
07:15	61.3	61.3	61.3	74	52.9	0	2	90	0.00	30.070 
07:20	61.3	61.3	61.3	73	52.6	0	3	90	0.00	30.070 
07:25	61.3	61.3	61.3	72	52.2	0	4	90	0.00	30.070 
07:30	61.3	61.3	61.3	71	51.8	0	2	90	0.00	30.071 
07:35	61.5	61.5	61.5	70	51.6	1	5	90	0.00	30.071 
07:40	61.5	61.5	61.5	71	52.0	0	2	90	0.00	30.071 
07:45	61.6	61.6	61.6	69	51.3	1	3	90	0.00	30.076 
07:50	61.6	61.6	61.6	70	51.7	1	3	90	0.00	30.076 
07:55	61.8	61.8	61.8	69	51.5	1	4	90	0.00	30.076 
08:00	61.8	61.8	61.8	70	51.9	0	2	90	0.00	30.080 
08:05	62.1	62.1	62.1	70	52.2	0	3	90	0.00	30.080 
08:10	62.4	62.4	62.4	69	52.1	1	5	90	0.00	30.080 
08:15	62.6	62.6	62.6	69	52.3	1	4	135	0.00	30.086 
08:20	62.7	62.7	62.7	70	52.8	1	3	135	0.00	30.086 
08:25	62.7	62.7	62.7	69	52.4	2	6	112	0.00	30.086 
08:30	62.9	62.9	62.9	69	52.6	1	6	68	0.00	30.087 
08:35	63.1	63.1	63.1	68	52.4	1	4	90	0.00	30.087 
08:40	63.4	63.4	63.4	69	53.0	1	3	68	0.00	30.087 
08:45	63.9	63.9	63.9	67	52.7	1	6	90	0.00	30.088 
08:50	64.8	64.8	64.8	65	52.8	1	3	135	0.00	30.088 
08:55	65.3	65.3	65.3	63	52.4	2	6	135	0.00	30.088 
09:00	65.8	65.8	65.8	62	52.4	1	4	90	0.00	30.090 
09:05	66.1	66.1	66.1	62	52.7	2	6	112	0.00	30.090 
09:10	66.4	66.4	66.4	61	52.5	1	5	112	0.00	30.090 
09:15	66.6	66.6	66.6	60	52.3	2	5	90	0.00	30.088 
09:20	66.8	66.8	66.8	61	52.9	1	5	90	0.00	30.088 
09:25	66.9	66.9	66.9	58	51.6	1	5	112	0.00	30.088 
09:30	67.3	67.3	67.3	61	53.4	1	3	90	0.00	30.087 
09:35	67.6	67.6	67.6	57	51.8	1	5	90	0.00	30.087 
09:40	67.8	67.8	67.8	58	52.5	1	5	90	0.00	30.087 
09:45	67.9	67.9	67.9	58	52.6	1	4	68	0.00	30.092 
09:50	68.1	68.1	68.1	55	51.3	2	7	90	0.00	30.092 
09:55	68.1	68.1	68.1	57	52.3	1	4	90	0.00	30.092 
10:00	68.4	68.4	68.4	57	52.6	1	3	90	0.00	30.088 
10:05	68.6	68.6	68.6	54	51.3	2	5	90	0.00	30.088 
10:10	68.8	68.8	68.8	56	52.5	1	5	90	0.00	30.088 
10:15	69.1	69.1	69.1	55	52.2	1	3	68	0.00	30.091 
10:20	69.3	69.3	69.3	54	51.9	1	3	45	0.00	30.091 
10:25	69.6	69.6	69.6	53	51.7	1	4	338	0.00	30.091 
10:30	69.9	69.9	69.9	51	50.9	1	4	90	0.00	30.089 
10:35	70.3	70.3	70.3	51	51.3	2	5	90	0.00	30.089 
10:40	70.6	70.6	70.6	49	50.5	2	6	112	0.00	30.089 
10:45	70.8	70.8	70.8	50	51.2	2	5	90	0.00	30.086 
10:50	71.3	71.3	71.3	50	51.7	1	6	90	0.00	30.086 
10:55	71.6	71.6	71.6	49	51.4	1	3	90	0.00	30.086 
11:00	72.0	72.0	72.0	49	51.8	0	3	90	0.00	30.085 
11:05	71.6	71.6	71.6	46	49.7	2	5	338	0.00	30.085 
11:10	71.1	71.1	71.1	47	49.8	2	6	338	0.00	30.085 
11:15	71.5	71.5	71.5	48	50.8	1	3	338	0.00	30.086 
11:20	71.3	71.3	71.3	47	50.0	1	4	338	0.00	30.086 
11:25	72.0	72.0	72.0	43	48.3	1	5	0	0.00	30.086 
11:30	72.3	72.3	72.3	47	50.9	1	4	90	0.00	30.083 
11:35	71.6	71.6	71.6	43	47.9	2	10	90	0.00	30.083 
11:40	71.8	71.8	71.8	47	50.5	1	4	90	0.00	30.083 
11:45	71.6	71.6	71.6	43	47.9	2	6	90	0.00	30.084 
11:50	70.9	70.9	70.9	45	48.5	1	4	135	0.00	30.084 
11:55	71.5	71.5	71.5	45	49.0	2	6	135	0.00	30.084 
12:00	72.0	72.0	72.0	44	48.9	1	5	90	0.00	30.084 
12:05	72.3	72.3	72.3	49	52.1	1	5	90	0.00	30.084 
12:10	73.0	73.0	73.0	46	51.0	1	5	112	0.00	30.084 
12:15	73.3	73.3	73.3	44	50.1	1	4	112	0.00	30.085 
12:20	73.0	73.0	73.0	43	49.2	1	4	292	0.00	30.085 
12:25	72.8	72.8	72.8	45	50.2	1	4	292	0.00	30.085 
12:30	73.2	73.2	73.2	42	48.7	1	4	90	0.00	30.078 
12:35	73.5	73.5	73.5	43	49.6	1	6	292	0.00	30.078 
12:40	73.0	73.0	73.0	41	47.9	2	6	292	0.00	30.078 
12:45	73.0	73.0	73.0	41	47.9	1	6	90	0.00	30.074 
12:50	72.7	72.7	72.7	40	47.0	1	5	338	0.00	30.074 
12:55	73.2	73.2	73.2	43	49.3	1	4	90	0.00	30.074 
13:00	73.7	73.7	73.7	40	47.9	1	6	90	0.00	30.073 
13:05	72.8	72.8	72.8	39	46.4	2	5	315	0.00	30.073 
13:10	72.7	72.7	72.7	41	47.6	1	4	68	0.00	30.073 
13:15	72.5	72.5	72.5	43	48.7	1	4	270	0.00	30.075 
13:20	72.7	72.7	72.7	40	47.0	2	5	112	0.00	30.075 
13:25	73.2	73.2	73.2	41	48.1	1	5	68	0.00	30.075 
13:30	74.0	74.0	74.0	42	49.4	2	5	90	0.00	30.071 
13:35	74.4	74.4	74.4	40	48.5	1	5	315	0.00	30.071 
13:40	75.3	75.3	77.5	39	48.6	1	6	112	0.00	30.071 
13:45	75.8	75.8	77.7	39	49.1	1	4	68	0.00	30.068 
13:50	75.6	75.6	77.6	38	48.2	1	4	315	0.00	30.068 
13:55	75.3	75.3	77.5	39	48.6	1	4	112	0.00	30.068 
14:00	75.6	75.6	77.6	39	48.9	1	4	68	0.00	30.067 
14:05	76.0	76.0	77.7	38	48.5	1	3	68	0.00	30.067 
14:10	75.8	75.8	77.7	40	49.7	1	5	68	0.00	30.067 
14:15	75.8	75.8	77.8	42	51.1	2	5	68	0.00	30.057 
14:20	75.8	75.8	77.8	41	50.4	2	7	90	0.00	30.057 
14:25	76.0	76.0	77.7	38	48.5	2	6	112	0.00	30.057 
14:30	75.6	75.6	77.6	39	48.9	2	6	112	0.00	30.056 
14:35	74.7	74.7	74.7	40	48.8	2	5	90	0.00	30.056 
14:40	74.6	74.6	74.6	40	48.7	1	10	112	0.00	30.056 
14:45	75.3	75.3	77.6	40	49.3	1	5	135	0.00	30.062 
14:50	75.8	75.8	77.7	38	48.4	1	4	90	0.00	30.062 
14:55	76.3	76.3	77.8	38	48.8	1	6	90	0.00	30.062 
15:00	76.5	76.5	78.0	39	49.7	1	4	68	0.00	30.054 
15:05	75.8	75.8	77.7	39	49.1	0	2	68	0.00	30.054 
15:10	75.8	75.8	77.6	36	46.9	1	6	68	0.00	30.054 
15:15	76.1	76.1	77.7	37	47.9	1	4	292	0.00	30.052 
15:20	76.5	76.5	77.9	38	49.0	1	5	292	0.00	30.052 
15:25	76.1	76.1	77.8	38	48.6	2	5	90	0.00	30.052 
15:30	76.0	76.0	77.7	38	48.5	1	4	90	0.00	30.050 
15:35	76.1	76.1	77.7	36	47.2	1	5	90	0.00	30.050 
15:40	76.5	76.5	77.9	38	49.0	1	4	90	0.00	30.050 
15:45	76.3	76.3	77.9	40	50.2	1	3	90	0.00	30.045 
15:50	75.6	75.6	77.7	40	49.6	1	2	68	0.00	30.045 
15:55	75.8	75.8	77.7	38	48.4	2	7	68	0.00	30.045 
16:00	76.3	76.3	77.8	38	48.8	1	5	68	0.00	30.040 
16:05	76.7	76.7	78.1	40	50.5	1	4	90	0.00	30.040 
16:10	77.2	77.2	78.2	38	49.6	1	7	90	0.00	30.040 
16:15	77.4	77.4	78.5	41	51.8	1	2	90	0.00	30.036 
16:20	77.4	77.4	78.3	37	49.1	1	6	112	0.00	30.036 
16:25	77.0	77.0	78.2	39	50.1	2	5	112	0.00	30.036 
16:30	76.7	76.7	78.1	39	49.9	1	7	112	0.00	30.035 
16:35	76.7	76.7	78.1	39	49.9	2	4	90	0.00	30.035 
16:40	76.3	76.3	77.9	40	50.2	1	4	90	0.00	30.035 
16:45	76.0	76.0	77.8	39	49.2	1	4	90	0.00	30.036 
16:50	76.3	76.3	77.9	39	49.5	1	4	90	0.00	30.036 
16:55	76.5	76.5	78.0	40	50.4	1	4	90	0.00	30.036 
17:00	76.0	76.0	77.8	39	49.2	1	2	90	0.00	30.031 
17:05	75.6	75.6	77.7	41	50.2	1	4	90	0.00	30.031 
17:10	75.3	75.3	77.6	40	49.3	1	6	90	0.00	30.031 
17:15	74.9	74.9	74.9	40	48.9	2	5	90	0.00	30.024 
17:20	74.7	74.7	74.7	41	49.4	1	4	90	0.00	30.024 
17:25	74.6	74.6	74.6	43	50.6	1	3	90	0.00	30.024 
17:30	75.3	75.3	77.6	40	49.3	1	3	90	0.00	30.016 
17:35	76.0	76.0	77.9	41	50.6	1	3	90	0.00	30.016 
17:40	76.5	76.5	78.0	39	49.7	1	4	90	0.00	30.016 
17:45	76.7	76.7	78.1	39	49.9	1	4	90	0.00	30.007 
17:50	76.7	76.7	78.1	39	49.9	1	4	90	0.00	30.007 
17:55	76.0	76.0	77.8	40	49.9	2	5	90	0.00	30.007 
18:00	75.4	75.4	77.6	40	49.4	0	2	90	0.00	30.008 
18:05	75.4	75.4	77.6	40	49.4	1	4	90	0.00	30.008 
18:10	75.8	75.8	77.8	41	50.4	1	5	112	0.00	30.008 
18:15	75.8	75.8	77.8	41	50.4	1	3	90	0.00	30.004 
18:20	75.6	75.6	77.6	39	48.9	1	4	90	0.00	30.004 
18:25	75.1	75.1	77.6	41	49.8	0	2	90	0.00	30.004 
18:30	74.9	74.9	74.9	41	49.6	0	3	90	0.00	30.011 
18:35	74.4	74.4	74.4	41	49.1	1	4	90	0.00	30.011 
18:40	74.0	74.0	74.0	41	48.8	1	3	90	0.00	30.011 
18:45	73.9	73.9	73.9	43	50.0	1	3	90	0.00	30.007 
18:50	73.7	73.7	73.7	43	49.8	0	2	90	0.00	30.007 
18:55	73.7	73.7	73.7	42	49.2	0	1	90	0.00	30.007 
19:00	73.7	73.7	73.7	42	49.2	0	2	90	0.00	30.013 
19:05	73.7	73.7	73.7	43	49.8	0	2	90	0.00	30.013 
19:10	73.7	73.7	73.7	43	49.8	0	2	90	0.00	30.013 
19:15	73.5	73.5	73.5	43	49.6	0	1	90	0.00	30.014 
19:20	73.5	73.5	73.5	43	49.6	0	1	90	0.00	30.014 
19:25	73.7	73.7	73.7	42	49.2	0	1	90	0.00	30.014 
19:30	73.9	73.9	73.9	41	48.7	0	2	90	0.00	30.012 
19:35	73.9	73.9	73.9	42	49.3	0	2	90	0.00	30.012 
19:40	73.9	73.9	73.9	42	49.3	0	0	---	0.00	30.012 
19:45	73.7	73.7	73.7	45	51.0	0	1	90	0.00	30.023 
19:50	73.5	73.5	73.5	43	49.6	0	1	90	0.00	30.023 
19:55	73.5	73.5	73.5	44	50.2	0	2	90	0.00	30.023 
20:00	73.3	73.3	73.3	44	50.1	0	2	90	0.00	30.023 
20:05	73.3	73.3	73.3	44	50.1	0	1	90	0.00	30.023 
20:10	73.3	73.3	73.3	44	50.1	0	1	90	0.00	30.023 
20:15	73.2	73.2	73.2	43	49.3	0	1	90	0.00	30.021 
20:20	73.2	73.2	73.2	44	50.0	0	2	90	0.00	30.021 
20:25	73.2	73.2	73.2	43	49.3	0	1	90	0.00	30.021 
20:30	73.0	73.0	73.0	43	49.2	0	1	90	0.00	30.024 
20:35	73.0	73.0	73.0	44	49.8	0	0	---	0.00	30.024 
20:40	72.8	72.8	72.8	46	50.8	0	0	---	0.00	30.024 
20:45	72.7	72.7	72.7	46	50.7	0	0	---	0.00	30.030 
20:50	72.3	72.3	72.3	46	50.3	0	1	90	0.00	30.030 
20:55	72.1	72.1	72.1	46	50.2	0	0	---	0.00	30.030 
21:00	71.8	71.8	71.8	47	50.5	0	0	---	0.00	30.027 
21:05	71.5	71.5	71.5	48	50.8	0	0	---	0.00	30.027 
21:10	71.1	71.1	71.1	49	51.0	0	1	90	0.00	30.027 
21:15	70.8	70.8	70.8	49	50.7	0	0	---	0.00	30.023 
21:20	70.4	70.4	70.4	50	50.9	0	0	---	0.00	30.023 
21:25	70.3	70.3	70.3	50	50.8	0	0	---	0.00	30.023 
21:30	69.9	69.9	69.9	51	50.9	0	0	---	0.00	30.025 
21:35	69.6	69.6	69.6	52	51.2	0	0	---	0.00	30.025 
21:40	69.3	69.3	69.3	52	50.9	0	0	---	0.00	30.025 
21:45	68.9	68.9	68.9	54	51.6	0	0	---	0.00	30.031 
21:50	68.6	68.6	68.6	55	51.8	0	0	---	0.00	30.031 
21:55	68.1	68.1	68.1	56	51.8	0	0	---	0.00	30.031 
22:00	67.8	67.8	67.8	57	52.0	0	0	---	0.00	30.036 
22:05	67.3	67.3	67.3	59	52.5	0	1	90	0.00	30.036 
22:10	66.8	66.8	66.8	60	52.5	0	1	90	0.00	30.036 
22:15	66.3	66.3	66.3	61	52.4	0	0	---	0.00	30.031 
22:20	66.0	66.0	66.0	60	51.7	0	0	---	0.00	30.031 
22:25	65.8	65.8	65.8	60	51.5	0	0	---	0.00	30.031 
22:30	65.5	65.5	65.5	60	51.2	0	0	---	0.00	30.035 
22:35	65.3	65.3	65.3	62	51.9	0	0	---	0.00	30.035 
22:40	65.0	65.0	65.0	62	51.7	0	0	---	0.00	30.035 
22:45	64.8	64.8	64.8	63	51.9	0	0	---	0.00	30.040 
22:50	64.5	64.5	64.5	65	52.5	0	0	---	0.00	30.040 
22:55	64.2	64.2	64.2	65	52.2	0	0	---	0.00	30.040 
23:00	63.9	63.9	63.9	66	52.3	0	0	---	0.00	30.038 
23:05	63.5	63.5	63.5	66	51.9	0	0	---	0.00	30.038 
23:10	63.2	63.2	63.2	67	52.1	0	0	---	0.00	30.038 
23:15	63.1	63.1	63.1	68	52.4	0	0	---	0.00	30.043 
23:20	62.9	62.9	62.9	69	52.6	0	0	---	0.00	30.043 
23:25	62.7	62.7	62.7	70	52.8	0	0	---	0.00	30.043 
23:30	62.6	62.6	62.6	71	53.1	0	0	---	0.00	30.042 
23:35	62.3	62.3	62.3	72	53.2	0	0	---	0.00	30.042 
23:40	62.0	62.0	62.0	73	53.2	0	0	---	0.00	30.042 
23:45	61.6	61.6	61.6	74	53.2	0	0	---	0.00	30.039 
23:50	61.3	61.3	61.3	75	53.3	0	1	90	0.00	30.039 
23:55	61.3	61.3	61.3	75	53.3	0	0	---	0.00	30.039 

CoCoRaHS
IN-AL-39
A2 Web Hosting
Creative Commons License
GoDaddy
search engine by freefind advanced

loaded 2018-11-20 07:14:47 • last modified 2010-11-18 10:43:29
Privacy PolicyDisclaimer
• wx.awcolley.com is powered by PmWiki v.2002016 •
• all content (unless otherwise noted) © 2018 A W Colley